Time;durP1;ratioP1;P1;durP2;ratioP2;P2;SDS_P1;SDS_P2;PMS_P1;PMS_P2;Temp;Humidity;BMP_temperature;BMP_pressure;BME280_temperature;BME280_humidity;BME280_pressure;Samples;Min_cycle;Max_cycle;Signal;HPM_P1;HPM_P2
2024/03/11 00:01:49;;;;;;;10.60;8.05;;;;;;;6.77;100.00;97294.75;4984515;28;20040;-67
2024/03/11 00:04:15;;;;;;;10.82;8.32;;;;;;;6.76;100.00;97295.75;4962745;28;20034;-69
2024/03/11 00:06:44;;;;;;;10.30;7.72;;;;;;;6.73;100.00;97294.25;4975636;28;20185;-64
2024/03/11 00:09:19;;;;;;;10.93;7.70;;;;;;;6.37;100.00;97250.47;4975620;28;20041;-65
2024/03/11 00:11:57;;;;;;;9.65;7.22;;;;;;;6.51;100.00;97283.47;4963995;28;20075;-62
2024/03/11 00:14:28;;;;;;;9.50;7.03;;;;;;;6.41;100.00;97284.56;4976943;28;20485;-64
2024/03/11 00:16:58;;;;;;;10.70;7.95;;;;;;;6.52;100.00;97284.28;4956417;28;20403;-66
2024/03/11 00:19:27;;;;;;;12.32;8.18;;;;;;;6.23;100.00;97244.06;4978618;28;20111;-66
2024/03/11 00:21:54;;;;;;;11.45;7.78;;;;;;;6.42;100.00;97286.94;4955452;28;20049;-66
2024/03/11 00:24:23;;;;;;;9.93;7.53;;;;;;;6.42;100.00;97288.72;4985730;28;20045;-67
2024/03/11 00:26:51;;;;;;;9.80;7.20;;;;;;;6.43;100.00;97291.16;4983948;28;20498;-66
2024/03/11 00:29:17;;;;;;;9.43;7.47;;;;;;;6.47;100.00;97287.31;4964643;28;20076;-69
2024/03/11 00:31:42;;;;;;;10.80;7.95;;;;;;;6.27;100.00;97254.91;4971376;28;20042;-68
2024/03/11 00:34:08;;;;;;;10.07;6.68;;;;;;;6.44;100.00;97291.97;4968835;28;20133;-71
2024/03/11 00:36:37;;;;;;;9.02;6.28;;;;;;;6.44;100.00;97302.31;4980694;28;20033;-70
2024/03/11 00:39:03;;;;;;;8.90;6.30;;;;;;;6.45;100.00;97296.19;4974365;28;20120;-69
2024/03/11 00:41:29;;;;;;;8.90;6.13;;;;;;;6.09;100.00;97254.94;4976235;28;20201;-68
2024/03/11 00:43:57;;;;;;;9.18;6.05;;;;;;;6.41;100.00;97307.78;4938857;28;20065;-69
2024/03/11 00:46:24;;;;;;;8.55;6.00;;;;;;;6.26;100.00;97297.16;4959608;28;20521;-69
2024/03/11 00:48:52;;;;;;;8.23;5.40;;;;;;;6.37;100.00;97298.69;4951649;28;20061;-68
2024/03/11 00:51:21;;;;;;;7.43;5.45;;;;;;;6.39;100.00;97314.84;4958181;28;20045;-70
2024/03/11 00:53:46;;;;;;;7.82;5.03;;;;;;;6.43;100.00;97308.44;4954127;28;20499;-70
2024/03/11 00:56:12;;;;;;;8.88;5.43;;;;;;;6.20;100.00;97275.34;4953438;28;20053;-70
2024/03/11 00:58:37;;;;;;;8.43;5.88;;;;;;;6.42;100.00;97309.38;4959287;28;20042;-68
2024/03/11 01:01:06;;;;;;;7.80;5.18;;;;;;;6.57;100.00;97309.66;4956065;28;20060;-75
2024/03/11 01:03:32;;;;;;;7.68;5.68;;;;;;;6.58;100.00;97309.50;4967853;28;20062;-71
2024/03/11 01:06:01;;;;;;;8.70;6.07;;;;;;;6.39;100.00;97315.69;4944929;28;20133;-71
2024/03/11 01:08:29;;;;;;;8.88;6.18;;;;;;;6.49;100.00;97318.97;4952596;28;20034;-71
2024/03/11 01:11:00;;;;;;;8.35;5.55;;;;;;;6.42;100.00;97314.56;4959816;28;20053;-73
2024/03/11 01:13:27;;;;;;;7.93;5.75;;;;;;;6.44;100.00;97312.63;4949721;28;20052;-71
2024/03/11 01:15:55;;;;;;;8.85;6.72;;;;;;;6.47;100.00;97318.31;4972275;28;20886;-68
2024/03/11 01:18:23;;;;;;;7.93;5.57;;;;;;;6.47;100.00;97320.09;4967963;28;20438;-69
2024/03/11 01:20:50;;;;;;;9.63;5.90;;;;;;;6.40;100.00;97321.66;4974853;28;20045;-68
2024/03/11 01:23:17;;;;;;;8.68;5.93;;;;;;;6.44;100.00;97317.78;4980448;28;20023;-70
2024/03/11 01:25:45;;;;;;;8.30;5.75;;;;;;;6.50;100.00;97314.63;4946372;28;20094;-67
2024/03/11 01:28:10;;;;;;;7.88;5.60;;;;;;;6.50;100.00;97304.31;4959509;28;20174;-69
2024/03/11 01:30:36;;;;;;;10.50;5.80;;;;;;;6.57;100.00;97307.91;4962321;28;20030;-68
2024/03/11 01:33:05;;;;;;;9.27;5.82;;;;;;;6.23;100.00;97275.06;4951795;28;20043;-67
2024/03/11 01:35:31;;;;;;;8.90;6.20;;;;;;;6.45;100.00;97298.78;4963926;28;20092;-69
2024/03/11 01:38:01;;;;;;;8.23;5.88;;;;;;;6.34;100.00;97295.47;4955948;28;20093;-65
2024/03/11 01:40:30;;;;;;;10.73;6.03;;;;;;;6.33;100.00;97304.19;4948059;28;20166;-62
2024/03/11 01:42:55;;;;;;;11.07;6.47;;;;;;;6.31;100.00;97293.16;4972029;28;20045;-64
2024/03/11 01:45:22;;;;;;;8.23;5.88;;;;;;;6.40;100.00;97298.41;4957568;28;20039;-63
2024/03/11 01:47:48;;;;;;;9.63;5.95;;;;;;;6.29;100.00;97286.53;4963790;28;21347;-62
2024/03/11 01:50:17;;;;;;;7.55;4.85;;;;;;;6.41;100.00;97285.34;4955353;28;20046;-64
2024/03/11 01:52:56;;;;;;;7.50;4.82;;;;;;;6.38;100.00;97295.16;4951150;28;20413;-63
2024/03/11 01:55:25;;;;;;;7.05;4.78;;;;;;;6.11;100.00;97247.84;4937777;28;20496;-68
2024/03/11 01:57:54;;;;;;;6.88;4.90;;;;;;;6.38;100.00;97285.66;4959191;28;20324;-67
2024/03/11 02:00:21;;;;;;;;;;;;;;;6.48;100.00;97288.13;4961533;28;20142;-66
2024/03/11 02:02:48;;;;;;;6.57;4.50;;;;;;;6.45;100.00;97291.03;4954125;28;19921;-65
2024/03/11 02:05:14;;;;;;;8.25;5.35;;;;;;;6.15;100.00;97256.91;4944319;28;20911;-65
2024/03/11 02:07:48;;;;;;;7.97;4.82;;;;;;;6.08;100.00;97238.66;4960411;28;20042;-66
2024/03/11 02:10:14;;;;;;;7.32;5.03;;;;;;;6.38;100.00;97292.59;4951706;28;20046;-66
2024/03/11 02:12:45;;;;;;;7.47;4.90;;;;;;;6.32;100.00;97281.09;4955343;28;20045;-66
2024/03/11 02:15:11;;;;;;;7.45;4.65;;;;;;;6.29;100.00;97287.34;4964446;28;20041;-68
2024/03/11 02:17:41;;;;;;;7.15;4.63;;;;;;;6.45;100.00;97285.84;4945665;28;20030;-65
2024/03/11 02:20:14;;;;;;;7.60;5.07;;;;;;;6.33;100.00;97280.94;4963354;28;20627;-68
2024/03/11 02:22:44;;;;;;;6.97;4.90;;;;;;;6.36;100.00;97284.97;4960703;28;20069;-68
2024/03/11 02:25:12;;;;;;;6.72;3.72;;;;;;;6.28;100.00;97277.16;4961504;28;20050;-68
2024/03/11 02:27:39;;;;;;;7.75;5.00;;;;;;;6.26;100.00;97279.91;4959598;28;20038;-66
2024/03/11 02:30:07;;;;;;;7.88;4.78;;;;;;;6.04;100.00;97224.44;4939561;28;20571;-68
2024/03/11 02:32:33;;;;;;;7.60;4.85;;;;;;;6.34;100.00;97279.16;4959480;28;20042;-68
2024/03/11 02:35:01;;;;;;;6.88;4.78;;;;;;;6.08;100.00;97232.69;4944866;28;21247;-67
2024/03/11 02:37:29;;;;;;;7.53;5.03;;;;;;;6.28;100.00;97265.09;4977401;28;20038;-68
2024/03/11 02:39:55;;;;;;;7.95;5.00;;;;;;;6.32;100.00;97276.72;4954017;28;20050;-67
2024/03/11 02:42:21;;;;;;;10.32;5.07;;;;;;;6.32;100.00;97276.72;4969892;28;20104;-68
2024/03/11 02:44:48;;;;;;;7.55;4.82;;;;;;;6.31;100.00;97261.38;4991658;28;20026;-68
2024/03/11 02:47:14;;;;;;;7.22;4.78;;;;;;;6.30;100.00;97263.16;4967692;28;20553;-68
2024/03/11 02:49:39;;;;;;;7.57;4.57;;;;;;;6.29;100.00;97266.69;4975447;28;20049;-68
2024/03/11 02:52:07;;;;;;;7.22;4.75;;;;;;;6.20;100.00;97267.59;4980987;28;20045;-69
2024/03/11 02:54:37;;;;;;;7.35;4.65;;;;;;;6.29;100.00;97273.63;4989340;28;20084;-72
2024/03/11 02:57:03;;;;;;;7.65;4.13;;;;;;;6.27;100.00;97265.25;4960403;28;20023;-72
2024/03/11 02:59:28;;;;;;;7.18;4.03;;;;;;;6.26;100.00;97269.59;4989519;28;20048;-69
2024/03/11 03:01:56;;;;;;;7.65;4.60;;;;;;;6.22;100.00;97267.44;4977733;28;20042;-70
2024/03/11 03:04:23;;;;;;;7.60;4.20;;;;;;;6.02;100.00;97226.31;4992026;28;20409;-73
2024/03/11 03:06:49;;;;;;;7.50;3.95;;;;;;;6.27;100.00;97276.38;4997797;28;20040;-77
2024/03/11 03:09:15;;;;;;;7.05;3.65;;;;;;;6.33;100.00;97259.47;4968130;28;20041;-71
2024/03/11 03:11:42;;;;;;;6.18;3.78;;;;;;;6.24;100.00;97257.78;4968046;28;20030;-73
2024/03/11 03:14:08;;;;;;;5.63;3.38;;;;;;;6.29;100.00;97258.94;4960437;28;20050;-71
2024/03/11 03:16:33;;;;;;;5.40;2.92;;;;;;;6.19;100.00;97266.00;4977364;28;20033;-71
2024/03/11 03:18:59;;;;;;;5.47;2.78;;;;;;;6.19;100.00;97247.09;4982508;28;20836;-69
2024/03/11 03:21:25;;;;;;;6.75;3.42;;;;;;;6.24;100.00;97256.03;4963370;28;20093;-69
2024/03/11 03:23:52;;;;;;;4.90;2.60;;;;;;;6.24;100.00;97260.38;4990617;28;20046;-67
2024/03/11 03:26:20;;;;;;;5.40;2.72;;;;;;;6.22;100.00;97249.38;4978402;28;20707;-66
2024/03/11 03:28:48;;;;;;;5.32;2.00;;;;;;;6.23;100.00;97244.06;4960233;28;20041;-65
2024/03/11 03:31:17;;;;;;;4.35;1.88;;;;;;;6.22;100.00;97247.59;4958661;28;20065;-67
2024/03/11 03:33:42;;;;;;;4.20;1.83;;;;;;;6.22;100.00;97252.75;4977550;28;20045;-65
2024/03/11 03:36:12;;;;;;;4.47;1.70;;;;;;;5.95;100.00;97202.91;4961223;28;20035;-65
2024/03/11 03:38:38;;;;;;;4.30;1.63;;;;;;;6.37;100.00;97254.81;4981583;28;20037;-67
2024/03/11 03:41:06;;;;;;;4.75;1.90;;;;;;;6.28;100.00;97252.19;4978215;28;20049;-71
2024/03/11 03:43:32;;;;;;;4.97;1.90;;;;;;;6.22;100.00;97249.38;4971206;28;20038;-65
2024/03/11 03:45:58;;;;;;;4.70;2.10;;;;;;;6.28;100.00;97252.19;4959657;28;20066;-73
2024/03/11 03:48:25;;;;;;;4.72;2.03;;;;;;;6.28;100.00;97248.78;4992804;28;20038;-72
2024/03/11 03:50:55;;;;;;;5.00;2.22;;;;;;;6.31;100.00;97248.47;4976595;28;20861;-68
2024/03/11 03:53:21;;;;;;;4.43;2.08;;;;;;;6.27;100.00;97247.16;4995146;28;20038;-69
2024/03/11 03:55:47;;;;;;;4.28;2.00;;;;;;;6.20;100.00;97236.63;4988038;28;20225;-71
2024/03/11 03:58:15;;;;;;;3.90;1.50;;;;;;;6.17;100.00;97231.78;4984435;28;20580;-75
2024/03/11 04:00:42;;;;;;;3.85;1.55;;;;;;;6.01;100.00;97198.13;4972427;28;20161;-70
2024/03/11 04:03:08;;;;;;;3.22;1.20;;;;;;;6.26;100.00;97237.78;4968185;28;20064;-72
2024/03/11 04:05:33;;;;;;;4.07;1.40;;;;;;;6.29;100.00;97237.50;4963127;28;20927;-74
2024/03/11 04:07:59;;;;;;;3.60;1.23;;;;;;;6.29;100.00;97230.56;4984120;28;20100;-72
2024/03/11 04:10:28;;;;;;;4.32;1.35;;;;;;;6.19;100.00;97222.13;4966797;28;20554;-71
2024/03/11 04:12:55;;;;;;;4.37;1.60;;;;;;;6.31;100.00;97238.94;4979192;28;20038;-69
2024/03/11 04:15:21;;;;;;;4.82;1.20;;;;;;;6.20;100.00;97233.25;4959491;28;20042;-67
2024/03/11 04:17:48;;;;;;;3.85;1.33;;;;;;;6.25;100.00;97238.75;4971462;28;20123;-69
2024/03/11 04:20:16;;;;;;;3.42;1.20;;;;;;;6.26;100.00;97236.03;4996603;28;20504;-72
2024/03/11 04:22:43;;;;;;;3.78;1.20;;;;;;;6.21;100.00;97247.78;4965327;28;20204;-66
2024/03/11 04:25:18;;;;;;;3.90;1.10;;;;;;;5.90;100.00;97197.34;4995401;28;20030;-71
2024/03/11 04:27:47;;;;;;;3.22;1.23;;;;;;;6.24;100.00;97244.88;4973615;28;20041;-71
2024/03/11 04:30:19;;;;;;;3.47;1.30;;;;;;;6.23;100.00;97238.91;4984521;28;20492;-72
2024/03/11 04:32:54;;;;;;;3.50;1.17;;;;;;;6.25;100.00;97247.31;4971003;28;20041;-69
2024/03/11 04:35:26;;;;;;;3.92;1.23;;;;;;;6.36;100.00;97248.84;4964880;28;20530;-69
2024/03/11 04:38:12;;;;;;;3.42;1.10;;;;;;;6.29;100.00;97251.19;4964711;28;20036;-68
2024/03/11 04:40:43;;;;;;;3.97;1.10;;;;;;;6.26;100.00;97258.44;4973971;28;20132;-72
2024/03/11 04:43:11;;;;;;;3.50;1.42;;;;;;;6.34;100.00;97261.91;4976292;28;20081;-71
2024/03/11 04:45:37;;;;;;;4.63;1.23;;;;;;;6.12;100.00;97221.09;4980959;28;20141;-69
2024/03/11 04:48:07;;;;;;;4.57;1.27;;;;;;;6.46;100.00;97272.81;4989529;28;20057;-69
2024/03/11 04:50:37;;;;;;;3.53;1.10;;;;;;;6.41;100.00;97264.69;4998050;28;20065;-68
2024/03/11 04:53:07;;;;;;;2.83;1.10;;;;;;;6.37;100.00;97263.38;4973249;28;20045;-71
2024/03/11 04:55:33;;;;;;;3.25;1.00;;;;;;;6.48;100.00;97268.28;4997046;28;20026;-68
2024/03/11 04:58:00;;;;;;;3.05;0.93;;;;;;;6.40;100.00;97270.81;4974491;28;20038;-69
2024/03/11 05:00:26;;;;;;;3.80;0.95;;;;;;;6.46;100.00;97265.06;4987631;28;20030;-73
2024/03/11 05:02:57;;;;;;;2.55;0.95;;;;;;;6.43;100.00;97270.50;4971976;28;20038;-67
2024/03/11 05:05:23;;;;;;;3.58;1.00;;;;;;;6.33;100.00;97257.72;4996049;28;20789;-69
2024/03/11 05:07:51;;;;;;;3.13;1.00;;;;;;;6.27;100.00;97252.31;4979699;28;20140;-68
2024/03/11 05:10:17;;;;;;;2.95;1.02;;;;;;;6.28;100.00;97249.59;4974270;28;20033;-68
2024/03/11 05:12:47;;;;;;;2.25;1.00;;;;;;;6.21;100.00;97266.66;4966185;28;20091;-69
2024/03/11 05:15:13;;;;;;;2.83;0.82;;;;;;;6.31;100.00;97256.22;4971836;28;20129;-69
2024/03/11 05:17:39;;;;;;;3.97;0.80;;;;;;;6.29;100.00;97261.53;4997501;28;20059;-67
2024/03/11 05:20:14;;;;;;;4.75;0.90;;;;;;;6.18;100.00;97250.66;4975775;28;20034;-73
2024/03/11 05:22:45;;;;;;;2.58;0.75;;;;;;;6.04;100.00;97234.75;4977792;28;20029;-70
2024/03/11 05:25:14;;;;;;;2.80;1.20;;;;;;;6.20;100.00;97272.75;4974741;28;20808;-70
2024/03/11 05:27:41;;;;;;;2.35;0.77;;;;;;;6.25;100.00;97277.50;4980264;28;20473;-70
2024/03/11 05:30:10;;;;;;;3.15;0.90;;;;;;;6.24;100.00;97263.78;4989820;28;20034;-67
2024/03/11 05:32:38;;;;;;;7.07;1.10;;;;;;;6.16;100.00;97258.53;4972139;28;20042;-68
2024/03/11 05:35:04;;;;;;;2.65;0.88;;;;;;;6.05;100.00;97232.97;4982160;28;20049;-70
2024/03/11 05:37:31;;;;;;;2.30;0.75;;;;;;;6.29;100.00;97276.22;4986025;28;20038;-69
2024/03/11 05:40:11;;;;;;;3.15;0.82;;;;;;;6.20;100.00;97271.97;4959356;28;20057;-67
2024/03/11 05:42:38;;;;;;;3.80;0.75;;;;;;;6.24;100.00;97289.59;4974757;28;20132;-71
2024/03/11 05:45:06;;;;;;;3.05;1.02;;;;;;;6.09;100.00;97248.00;4962137;28;20618;-70
2024/03/11 05:47:34;;;;;;;3.25;1.00;;;;;;;6.22;100.00;97288.09;4968768;28;20041;-70
2024/03/11 05:50:02;;;;;;;2.78;0.95;;;;;;;6.16;100.00;97287.72;4998754;28;20038;-68
2024/03/11 05:52:32;;;;;;;3.20;1.10;;;;;;;6.18;100.00;97286.78;4972847;28;20498;-71
2024/03/11 05:55:01;;;;;;;5.22;1.23;;;;;;;6.26;100.00;97294.56;4964337;28;20049;-69
2024/03/11 05:57:26;;;;;;;3.88;1.10;;;;;;;6.15;100.00;97291.28;4971863;28;20168;-68
2024/03/11 05:59:52;;;;;;;3.35;1.10;;;;;;;6.21;100.00;97291.66;4956975;28;20436;-69
2024/03/11 06:02:18;;;;;;;4.88;1.63;;;;;;;6.11;100.00;97294.31;4962174;28;20034;-68
2024/03/11 06:04:45;;;;;;;3.70;1.38;;;;;;;6.08;100.00;97295.41;4967414;28;20044;-70
2024/03/11 06:07:16;;;;;;;3.75;1.50;;;;;;;6.13;100.00;97303.53;4975196;28;20101;-69
2024/03/11 06:09:41;;;;;;;3.47;1.30;;;;;;;6.12;100.00;97304.47;4963195;28;20559;-68
2024/03/11 06:12:07;;;;;;;4.13;1.40;;;;;;;6.12;100.00;97321.75;4961624;28;20045;-69
2024/03/11 06:14:35;;;;;;;3.97;1.50;;;;;;;6.10;100.00;97308.97;4981440;28;20442;-70
2024/03/11 06:17:04;;;;;;;5.18;2.08;;;;;;;6.13;100.00;97325.94;4951644;28;20603;-67
2024/03/11 06:19:32;;;;;;;4.03;1.83;;;;;;;5.95;100.00;97300.09;4972220;28;20061;-68
2024/03/11 06:22:02;;;;;;;4.40;1.85;;;;;;;6.13;100.00;97325.94;4982088;28;20108;-69
2024/03/11 06:24:32;;;;;;;5.43;2.17;;;;;;;5.75;100.00;97273.66;4966979;28;20041;-69
2024/03/11 06:27:00;;;;;;;5.55;1.95;;;;;;;5.84;100.00;97284.84;4981747;28;20034;-66
2024/03/11 06:29:26;;;;;;;4.07;1.88;;;;;;;6.05;100.00;97325.88;4976634;28;20544;-67
2024/03/11 06:32:03;;;;;;;5.03;2.47;;;;;;;6.10;100.00;97332.22;4986137;28;20091;-68
2024/03/11 06:34:34;;;;;;;5.50;1.90;;;;;;;6.18;100.00;97328.88;4975846;28;20579;-69
2024/03/11 06:37:00;;;;;;;4.10;1.77;;;;;;;6.24;100.00;97332.63;4965014;28;20039;-67
2024/03/11 06:39:25;;;;;;;4.35;1.63;;;;;;;6.29;100.00;97344.13;4976451;28;20497;-67
2024/03/11 06:41:51;;;;;;;4.53;1.75;;;;;;;6.23;100.00;97344.75;4985007;28;20649;-66
2024/03/11 06:44:17;;;;;;;5.00;1.52;;;;;;;6.33;100.00;97345.50;4979129;28;20436;-67
2024/03/11 06:46:43;;;;;;;5.60;1.70;;;;;;;6.26;100.00;97336.72;4989490;28;20042;-67
2024/03/11 06:49:08;;;;;;;4.15;1.52;;;;;;;6.27;100.00;97340.91;4963399;28;20042;-69
2024/03/11 06:51:35;;;;;;;6.40;1.60;;;;;;;6.27;100.00;97347.84;4971171;28;20057;-67
2024/03/11 06:54:00;;;;;;;4.32;1.63;;;;;;;5.94;100.00;97290.75;4972673;28;20038;-69
2024/03/11 06:56:27;;;;;;;5.00;1.35;;;;;;;6.33;100.00;97344.66;4974682;28;20042;-66
2024/03/11 06:58:58;;;;;;;4.00;1.40;;;;;;;6.37;100.00;97356.31;4966104;28;20048;-68
2024/03/11 07:01:27;;;;;;;4.55;1.60;;;;;;;6.37;100.00;97355.50;4976789;28;20333;-68
2024/03/11 07:03:56;;;;;;;4.18;1.67;;;;;;;6.26;100.00;97349.63;4975068;28;20054;-67
2024/03/11 07:06:25;;;;;;;5.43;2.13;;;;;;;6.25;100.00;97347.97;4980611;28;20089;-69
2024/03/11 07:08:51;;;;;;;3.80;1.50;;;;;;;6.27;100.00;97350.41;4981782;28;20046;-67
2024/03/11 07:11:18;;;;;;;4.38;2.00;;;;;;;6.18;100.00;97359.84;4984308;28;20121;-67
2024/03/11 07:13:46;;;;;;;4.55;1.73;;;;;;;5.82;100.00;97304.81;4959747;28;20601;-68
2024/03/11 07:16:16;;;;;;;5.30;1.67;;;;;;;6.06;100.00;97345.53;4989179;28;20103;-66
2024/03/11 07:18:44;;;;;;;4.85;1.95;;;;;;;6.07;100.00;97345.41;4974646;28;20050;-68
2024/03/11 07:21:15;;;;;;;4.50;1.92;;;;;;;6.10;100.00;97354.63;4969971;28;20151;-67
2024/03/11 07:23:43;;;;;;;4.45;1.90;;;;;;;6.12;100.00;97358.69;4991417;28;20466;-65
2024/03/11 07:26:10;;;;;;;5.30;2.33;;;;;;;6.15;100.00;97354.97;4977263;28;20026;-66
2024/03/11 07:28:37;;;;;;;6.22;1.88;;;;;;;6.05;100.00;97356.84;4977571;28;20121;-66
2024/03/11 07:31:03;;;;;;;4.80;1.98;;;;;;;6.05;100.00;97354.25;4979639;28;20550;-68
2024/03/11 07:33:30;;;;;;;5.00;1.63;;;;;;;6.04;100.00;97355.19;4985725;28;20042;-69
2024/03/11 07:35:58;;;;;;;5.47;1.55;;;;;;;6.07;100.00;97357.50;4978997;28;20045;-67
2024/03/11 07:38:23;;;;;;;5.63;2.10;;;;;;;6.09;100.00;97360.75;4985812;28;20734;-69
2024/03/11 07:40:49;;;;;;;4.60;1.90;;;;;;;6.11;100.00;97357.03;4982258;28;20140;-68
2024/03/11 07:43:15;;;;;;;4.53;1.90;;;;;;;6.09;100.00;97350.41;4981839;28;20053;-67
2024/03/11 07:45:41;;;;;;;5.90;2.15;;;;;;;6.16;100.00;97365.16;4976154;28;20719;-70
2024/03/11 07:48:10;;;;;;;3.65;1.75;;;;;;;5.91;100.00;97317.66;4972041;28;20050;-67
2024/03/11 07:50:36;;;;;;;4.90;2.15;;;;;;;6.14;100.00;97361.91;4970452;28;20784;-68
2024/03/11 07:53:01;;;;;;;5.35;2.30;;;;;;;6.20;100.00;97357.13;4975519;28;20034;-67
2024/03/11 07:55:29;;;;;;;4.65;2.42;;;;;;;6.16;100.00;97379.84;4971084;28;20117;-68
2024/03/11 07:57:57;;;;;;;6.00;2.60;;;;;;;6.13;100.00;97354.31;4952655;28;20037;-68
2024/03/11 08:00:29;;;;;;;5.95;2.85;;;;;;;6.11;100.00;97366.56;4984914;28;20165;-69
2024/03/11 08:02:57;;;;;;;7.88;2.90;;;;;;;5.89;100.00;97323.91;4974500;28;20061;-66
2024/03/11 08:05:23;;;;;;;5.05;2.80;;;;;;;6.27;100.00;97361.56;4979554;28;20044;-68
2024/03/11 08:07:49;;;;;;;6.32;2.92;;;;;;;6.29;100.00;97376.91;4978514;28;20042;-66
2024/03/11 08:10:16;;;;;;;6.35;2.78;;;;;;;6.22;100.00;97368.91;4979324;28;20043;-65
2024/03/11 08:12:51;;;;;;;5.95;2.85;;;;;;;6.35;100.00;97371.13;4989252;28;20042;-68
2024/03/11 08:15:17;;;;;;;5.97;2.85;;;;;;;6.32;100.00;97377.41;4979064;28;20030;-66
2024/03/11 08:17:44;;;;;;;5.45;2.60;;;;;;;6.39;100.00;97366.47;4982121;28;20029;-66
2024/03/11 08:20:17;;;;;;;6.47;3.20;;;;;;;6.41;100.00;97372.34;4978015;28;20049;-67
2024/03/11 08:22:47;;;;;;;6.03;2.75;;;;;;;6.43;100.00;97380.75;4973827;28;20034;-67
2024/03/11 08:25:22;;;;;;;6.15;3.33;;;;;;;6.35;100.00;97387.47;4961143;28;20514;-66
2024/03/11 08:27:48;;;;;;;5.65;2.95;;;;;;;6.39;100.00;97377.66;4986561;28;20145;-69
2024/03/11 08:30:15;;;;;;;6.25;3.10;;;;;;;6.31;100.00;97373.19;4978809;28;20036;-68
2024/03/11 08:32:41;;;;;;;5.75;2.97;;;;;;;6.35;100.00;97379.72;4974504;28;20073;-67
2024/03/11 08:35:07;;;;;;;5.72;2.92;;;;;;;6.43;100.00;97380.75;4971731;28;20030;-67
2024/03/11 08:37:35;;;;;;;5.50;2.97;;;;;;;6.16;100.00;97326.44;4981409;28;20369;-67
2024/03/11 08:40:04;;;;;;;5.82;2.78;;;;;;;6.25;100.00;97331.69;4984997;28;20030;-66
2024/03/11 08:42:29;;;;;;;5.13;2.80;;;;;;;6.68;100.00;97376.56;4941658;28;20057;-66
2024/03/11 08:44:56;;;;;;;6.03;3.13;;;;;;;6.71;100.00;97377.06;4953704;28;20057;-67
2024/03/11 08:47:23;;;;;;;6.03;3.30;;;;;;;6.73;100.00;97375.19;4960936;28;20042;-66
2024/03/11 08:49:54;;;;;;;6.53;3.25;;;;;;;6.70;100.00;97378.06;4944035;28;20054;-68
2024/03/11 08:52:20;;;;;;;5.85;3.20;;;;;;;6.74;100.00;97378.56;4949914;28;20749;-69
2024/03/11 08:54:50;;;;;;;5.75;3.20;;;;;;;6.64;100.00;97346.84;4943200;28;20085;-66
2024/03/11 08:57:16;;;;;;;6.55;3.45;;;;;;;6.85;100.00;97374.94;4958285;28;20038;-67
2024/03/11 08:59:42;;;;;;;6.40;3.70;;;;;;;6.91;100.00;97369.94;4946053;28;20049;-66
2024/03/11 09:02:14;;;;;;;7.63;3.80;;;;;;;6.71;100.00;97329.78;4967909;28;20149;-65
2024/03/11 09:04:40;;;;;;;6.95;4.13;;;;;;;7.05;100.00;97366.00;4956921;28;20030;-67
2024/03/11 09:07:05;;;;;;;8.00;3.58;;;;;;;7.04;100.00;97376.50;4939887;28;20454;-68
2024/03/11 09:09:32;;;;;;;8.30;4.00;;;;;;;6.93;100.00;97388.69;4943368;28;20038;-67
2024/03/11 09:11:57;;;;;;;6.80;3.97;;;;;;;6.92;100.00;97374.16;4938793;28;20104;-68
2024/03/11 09:14:32;;;;;;;7.55;4.22;;;;;;;6.94;100.00;97386.94;4957808;28;20026;-68
2024/03/11 09:17:01;;;;;;;8.95;4.10;;;;;;;7.00;100.00;97372.59;4956271;28;20046;-67
2024/03/11 09:19:32;;;;;;;6.70;4.40;;;;;;;6.87;100.00;97340.22;4957374;28;20125;-67
2024/03/11 09:21:58;;;;;;;9.48;4.40;;;;;;;6.85;100.00;97328.41;4972800;28;20035;-67
2024/03/11 09:24:24;;;;;;;7.93;4.82;;;;;;;7.14;100.00;97377.22;4959065;28;20034;-66
2024/03/11 09:26:53;;;;;;;7.03;4.00;;;;;;;7.21;100.00;97374.78;4959398;28;20086;-67
2024/03/11 09:29:20;;;;;;;7.37;4.60;;;;;;;7.25;100.00;97378.72;4953561;28;20110;-67
2024/03/11 09:31:49;;;;;;;7.55;3.90;;;;;;;7.03;100.00;97326.56;4945048;28;20413;-68
2024/03/11 09:34:19;;;;;;;7.03;3.92;;;;;;;7.51;100.00;97366.53;4957618;28;20132;-69
2024/03/11 09:36:52;;;;;;;7.18;3.58;;;;;;;7.40;100.00;97325.44;4947485;28;20030;-67
2024/03/11 09:39:19;;;;;;;6.97;3.20;;;;;;;7.72;100.00;97373.09;4957230;28;20100;-66
2024/03/11 09:41:50;;;;;;;5.65;3.00;;;;;;;7.70;100.00;97372.41;4963387;28;20091;-67
2024/03/11 09:44:24;;;;;;;6.63;2.92;;;;;;;7.35;100.00;97321.72;4976095;28;20042;-65
2024/03/11 09:46:51;;;;;;;6.18;2.45;;;;;;;7.65;100.00;97374.69;4962408;28;20037;-66
2024/03/11 09:49:19;;;;;;;5.38;2.50;;;;;;;7.76;100.00;97368.41;4980545;28;20614;-64
2024/03/11 09:51:50;;;;;;;5.63;2.28;;;;;;;7.84;100.00;97368.44;4977267;28;20120;-68
2024/03/11 09:54:19;;;;;;;5.25;2.22;;;;;;;7.65;100.00;97335.88;4965340;28;20628;-65
2024/03/11 09:56:47;;;;;;;4.97;2.20;;;;;;;7.84;100.00;97369.25;4970513;28;20121;-66
2024/03/11 09:59:18;;;;;;;6.18;2.65;;;;;;;7.94;100.00;97361.34;4961819;28;20092;-66
2024/03/11 10:01:54;;;;;;;5.00;2.25;;;;;;;8.00;100.00;97355.53;4980107;28;20795;-65
2024/03/11 10:04:26;;;;;;;5.45;2.20;;;;;;;8.04;100.00;97338.72;4973581;28;20050;-64
2024/03/11 10:06:58;;;;;;;5.32;1.90;;;;;;;8.33;100.00;97362.53;4976778;28;20037;-64
2024/03/11 10:09:46;;;;;;;5.35;1.90;;;;;;;8.20;100.00;97321.59;4961041;28;20217;-65
2024/03/11 10:12:15;;;;;;;6.72;2.40;;;;;;;8.39;100.00;97362.69;4976574;28;20452;-66
2024/03/11 10:14:42;;;;;;;5.82;1.90;;;;;;;8.35;100.00;97352.81;4979188;28;20038;-66
2024/03/11 10:17:24;;;;;;;5.45;1.90;;;;;;;8.48;100.00;97360.16;4971619;28;20058;-65
2024/03/11 10:19:54;;;;;;;7.03;1.70;;;;;;;8.42;100.00;97349.47;4989255;28;20034;-67
2024/03/11 10:22:28;;;;;;;4.15;1.55;;;;;;;8.26;100.00;97316.56;4967678;28;20049;-63
2024/03/11 10:24:57;;;;;;;3.40;1.20;;;;;;;8.45;100.00;97358.66;4958713;28;20038;-65
2024/03/11 10:27:39;;;;;;;6.40;1.80;;;;;;;8.59;100.00;97363.22;4977165;28;20405;-64
2024/03/11 10:30:26;;;;;;;4.85;1.52;;;;;;;8.69;100.00;97362.22;4973159;28;20276;-66
2024/03/11 10:32:55;;;;;;;4.47;1.55;;;;;;;8.73;100.00;97353.19;4958467;28;20046;-65
2024/03/11 10:35:21;;;;;;;4.43;1.52;;;;;;;8.79;100.00;97357.69;4994066;28;20121;-65
2024/03/11 10:37:54;;;;;;;4.13;1.70;;;;;;;8.93;100.00;97349.25;4976326;28;20030;-65
2024/03/11 10:40:33;;;;;;;4.15;1.63;;;;;;;8.97;100.00;97344.56;4973385;28;20037;-63
2024/03/11 10:43:19;;;;;;;5.57;2.03;;;;;;;9.06;100.00;97340.97;4966432;28;20050;-68
2024/03/11 10:45:47;;;;;;;4.88;1.38;;;;;;;8.99;100.00;97351.19;4972033;28;20038;-66
2024/03/11 10:48:15;;;;;;;3.67;1.00;;;;;;;9.16;100.00;97354.56;4963183;28;20661;-64
2024/03/11 10:50:40;;;;;;;3.47;1.15;;;;;;;9.13;100.00;97320.38;4986592;28;20045;-65
2024/03/11 10:53:07;;;;;;;2.83;0.95;;;;;;;9.51;100.00;97349.06;4996917;28;20069;-65
2024/03/11 10:55:34;;;;;;;2.55;0.90;;;;;;;9.35;100.00;97353.34;4974123;28;20025;-66
2024/03/11 10:58:03;;;;;;;2.97;0.90;;;;;;;9.04;100.00;97307.41;4977208;28;20030;-68
2024/03/11 11:00:40;;;;;;;2.70;0.90;;;;;;;9.46;100.00;97352.19;4978017;28;20033;-66
2024/03/11 11:03:12;;;;;;;3.08;0.80;;;;;;;9.27;100.00;97306.69;4978219;28;20260;-69
2024/03/11 11:05:47;;;;;;;2.13;0.80;;;;;;;9.51;100.00;97352.50;4962020;28;20112;-68
2024/03/11 11:08:12;;;;;;;3.88;0.85;;;;;;;9.49;100.00;97356.22;4977040;28;20039;-69
2024/03/11 11:10:45;;;;;;;2.75;0.80;;;;;;;9.55;100.00;97351.16;4965001;28;20133;-66
2024/03/11 11:13:15;;;;;;;2.88;0.98;;;;;;;9.68;100.00;97357.63;4972693;28;20396;-66
2024/03/11 11:15:45;;;;;;;3.95;0.80;;;;;;;9.40;100.00;97319.13;4981325;28;20041;-65
2024/03/11 11:18:15;;;;;;;2.58;0.95;;;;;;;9.64;100.00;97351.94;4948472;28;20164;-67
2024/03/11 11:20:49;;;;;;;2.88;0.95;;;;;;;9.72;100.00;97354.50;4975280;28;20229;-65
2024/03/11 11:23:28;;;;;;;4.75;1.00;;;;;;;9.75;100.00;97348.97;4978180;28;20041;-66
2024/03/11 11:25:57;;;;;;;3.90;1.08;;;;;;;9.85;100.00;97345.34;4969126;28;20064;-65
2024/03/11 11:28:31;;;;;;;5.43;1.65;;;;;;;9.86;100.00;97344.38;4962202;28;20409;-64
2024/03/11 11:31:26;;;;;;;5.13;1.38;;;;;;;10.05;100.00;97350.91;4972549;28;20136;-67
2024/03/11 11:33:56;;;;;;;4.00;0.90;;;;;;;9.90;100.00;97309.31;4962165;28;20515;-66
2024/03/11 11:36:37;;;;;;;3.00;1.00;;;;;;;9.82;100.00;97303.19;4999681;28;20088;-67
2024/03/11 11:39:13;;;;;;;3.00;0.82;;;;;;;9.91;100.00;97314.31;4970768;28;20065;-67
2024/03/11 11:41:41;;;;;;;1.70;0.60;;;;;;;10.11;100.00;97338.06;4981279;28;20061;-68